Time;durP1;ratioP1;P1;durP2;ratioP2;P2;SDS_P1;SDS_P2;PMS_P1;PMS_P2;Temp;Humidity;BMP_temperature;BMP_pressure;BME280_temperature;BME280_humidity;BME280_pressure;Samples;Min_cycle;Max_cycle;Signal;HPM_P1;HPM_P2
2021/08/09 00:01:35;;;;;;;6.82;2.05;;;16.40;85.20;;;;;;5078398;28;20024;-83
2021/08/09 00:04:02;;;;;;;7.32;2.33;;;16.40;85.20;;;;;;5086127;28;20032;-75
2021/08/09 00:06:28;;;;;;;4.45;2.10;;;16.30;85.40;;;;;;5071462;28;20082;-75
2021/08/09 00:08:53;;;;;;;4.68;2.20;;;16.30;85.50;;;;;;5053177;28;20032;-75
2021/08/09 00:11:19;;;;;;;4.65;2.17;;;16.30;85.60;;;;;;5053245;28;20082;-75
2021/08/09 00:13:45;;;;;;;4.00;2.08;;;16.20;85.80;;;;;;5036917;28;20085;-75
2021/08/09 00:16:10;;;;;;;6.85;2.15;;;16.20;86.00;;;;;;5053645;28;20028;-75
2021/08/09 00:18:36;;;;;;;5.07;2.03;;;16.20;86.10;;;;;;5070675;28;20029;-75
2021/08/09 00:21:02;;;;;;;5.30;2.38;;;16.20;86.30;;;;;;5052726;28;20508;-75
2021/08/09 00:23:27;;;;;;;6.00;1.73;;;16.10;86.30;;;;;;5053646;28;20366;-75
2021/08/09 00:25:53;;;;;;;4.07;2.08;;;16.10;86.30;;;;;;5050821;28;20106;-75
2021/08/09 00:28:19;;;;;;;6.80;2.17;;;16.10;86.40;;;;;;5049286;28;20441;-75
2021/08/09 00:30:44;;;;;;;8.35;2.30;;;16.10;86.50;;;;;;5074949;28;20572;-75
2021/08/09 00:33:10;;;;;;;6.13;2.50;;;16.10;86.50;;;;;;5020022;28;20107;-75
2021/08/09 00:35:36;;;;;;;4.93;2.10;;;16.10;86.60;;;;;;5037288;28;20079;-75
2021/08/09 00:38:01;;;;;;;4.43;2.08;;;16.10;86.60;;;;;;5067435;28;20040;-75
2021/08/09 00:40:27;;;;;;;4.30;1.83;;;16.10;86.60;;;;;;5056530;28;20020;-75
2021/08/09 00:42:53;;;;;;;5.57;2.38;;;16.00;86.70;;;;;;5074782;28;20033;-75
2021/08/09 00:45:18;;;;;;;5.50;2.50;;;16.00;86.90;;;;;;5056612;28;20500;-75
2021/08/09 00:47:44;;;;;;;10.00;2.50;;;16.00;86.80;;;;;;5056637;28;20056;-75
2021/08/09 00:50:10;;;;;;;7.18;2.22;;;16.00;86.80;;;;;;5040154;28;20060;-75
2021/08/09 00:52:36;;;;;;;8.18;2.50;;;16.00;86.80;;;;;;5074224;28;20404;-75
2021/08/09 00:55:02;;;;;;;9.20;2.30;;;16.00;86.90;;;;;;5056834;28;20103;-75
2021/08/09 00:57:28;;;;;;;3.80;2.05;;;16.00;86.90;;;;;;5056664;28;20024;-75
2021/08/09 00:59:55;;;;;;;9.82;2.30;;;16.00;86.80;;;;;;5056249;28;20033;-75
2021/08/09 01:02:20;;;;;;;8.40;2.58;;;16.00;86.80;;;;;;5056408;28;20177;-76
2021/08/09 01:04:47;;;;;;;7.65;2.35;;;16.00;86.80;;;;;;5037867;28;20044;-75
2021/08/09 01:07:12;;;;;;;8.82;2.38;;;15.90;86.80;;;;;;5073468;28;20028;-75
2021/08/09 01:10:01;;;;;;;5.55;2.10;;;15.90;86.80;;;;;;5074553;28;20032;-75
2021/08/09 01:12:36;;;;;;;6.00;2.50;;;15.90;87.00;;;;;;5073925;28;20055;-75
2021/08/09 01:15:28;;;;;;;7.25;2.33;;;15.90;86.90;;;;;;5073996;28;20058;-75
2021/08/09 01:17:56;;;;;;;6.30;2.70;;;15.80;86.90;;;;;;5042499;28;20024;-75
2021/08/09 01:20:57;;;;;;;8.45;2.67;;;15.80;87.00;;;;;;5073747;28;20035;-75
2021/08/09 01:23:51;;;;;;;7.55;2.25;;;15.80;87.10;;;;;;5074109;28;20027;-75
2021/08/09 01:26:55;;;;;;;7.63;2.50;;;15.80;87.10;;;;;;5073292;28;20118;-75
2021/08/09 01:29:33;;;;;;;8.77;2.00;;;15.80;87.00;;;;;;5073914;28;20021;-75
2021/08/09 01:32:00;;;;;;;10.38;2.70;;;15.80;87.20;;;;;;5073905;28;20028;-75
2021/08/09 01:34:27;;;;;;;5.30;2.40;;;15.80;87.10;;;;;;5055655;28;20115;-75
2021/08/09 01:36:55;;;;;;;8.45;2.60;;;15.70;87.00;;;;;;5055219;28;20539;-75
2021/08/09 01:39:20;;;;;;;7.57;2.80;;;15.70;87.20;;;;;;5055803;28;20028;-75
2021/08/09 01:41:49;;;;;;;5.22;2.30;;;15.80;87.30;;;;;;5039524;28;20115;-75
2021/08/09 01:44:15;;;;;;;5.97;2.35;;;15.70;87.30;;;;;;5038888;28;20052;-75
2021/08/09 01:46:41;;;;;;;6.30;2.47;;;15.70;87.90;;;;;;5073493;28;20036;-75
2021/08/09 01:49:08;;;;;;;6.93;2.10;;;15.70;87.50;;;;;;5022216;28;20025;-75
2021/08/09 01:51:35;;;;;;;9.05;2.13;;;15.70;87.50;;;;;;5055775;28;20086;-75
2021/08/09 01:54:02;;;;;;;6.65;2.22;;;15.80;87.60;;;;;;5055704;28;20048;-75
2021/08/09 01:56:28;;;;;;;10.70;2.53;;;15.80;87.60;;;;;;5055596;28;20099;-75
2021/08/09 01:58:54;;;;;;;6.85;2.55;;;15.80;87.60;;;;;;5055403;28;20028;-75
2021/08/09 02:01:20;;;;;;;6.93;2.55;;;15.80;87.70;;;;;;5055426;28;20477;-75
2021/08/09 02:03:47;;;;;;;4.38;2.35;;;15.70;87.70;;;;;;5055148;28;20054;-75
2021/08/09 02:06:13;;;;;;;5.78;2.50;;;15.80;87.70;;;;;;5073181;28;20033;-75
2021/08/09 02:08:39;;;;;;;7.80;2.55;;;15.70;87.80;;;;;;5038600;28;20028;-75
2021/08/09 02:11:16;;;;;;;5.85;2.30;;;15.70;87.70;;;;;;5054970;28;20036;-75
2021/08/09 02:13:50;;;;;;;4.15;2.20;;;15.70;87.70;;;;;;5053391;28;20113;-74
2021/08/09 02:16:18;;;;;;;6.65;2.17;;;15.70;87.80;;;;;;5047089;28;20097;-75
2021/08/09 02:18:53;;;;;;;5.90;2.13;;;15.60;87.70;;;;;;5054448;28;20485;-75
2021/08/09 02:21:25;;;;;;;7.07;2.20;;;15.60;87.90;;;;;;5053368;28;20071;-74
2021/08/09 02:23:52;;;;;;;6.22;2.33;;;15.60;88.00;;;;;;5071815;28;20052;-75
2021/08/09 02:26:33;;;;;;;7.38;2.10;;;15.60;88.00;;;;;;5072864;28;20079;-75
2021/08/09 02:29:06;;;;;;;7.28;2.30;;;15.60;88.00;;;;;;5054420;28;20067;-75
2021/08/09 02:31:33;;;;;;;5.80;2.10;;;15.60;88.70;;;;;;5053665;28;20025;-75
2021/08/09 02:34:02;;;;;;;5.30;2.08;;;15.60;88.10;;;;;;5054439;28;20021;-75
2021/08/09 02:36:27;;;;;;;4.22;1.85;;;15.60;88.10;;;;;;5054524;28;20021;-75
2021/08/09 02:38:55;;;;;;;7.47;2.53;;;15.60;88.10;;;;;;5053448;28;20037;-75
2021/08/09 02:41:21;;;;;;;7.88;2.42;;;15.60;88.30;;;;;;5054758;28;20051;-74
2021/08/09 02:43:47;;;;;;;5.30;2.20;;;15.60;88.30;;;;;;5054876;28;20034;-75
2021/08/09 02:46:12;;;;;;;4.97;2.25;;;15.60;88.30;;;;;;5071857;28;20086;-75
2021/08/09 02:48:41;;;;;;;7.65;2.00;;;15.60;88.40;;;;;;5053399;28;20052;-75
2021/08/09 02:51:09;;;;;;;4.95;2.08;;;15.70;88.60;;;;;;5072414;28;20028;-74
2021/08/09 02:53:35;;;;;;;5.53;2.15;;;15.70;88.60;;;;;;5071813;28;20167;-75
2021/08/09 02:56:02;;;;;;;5.90;2.38;;;15.70;88.60;;;;;;5038113;28;20062;-75
2021/08/09 02:58:28;;;;;;;6.13;2.20;;;15.70;88.70;;;;;;5072061;28;20048;-75
2021/08/09 03:00:56;;;;;;;7.88;2.38;;;15.80;88.60;;;;;;5054377;28;20113;-75
2021/08/09 03:03:22;;;;;;;4.38;2.55;;;15.70;88.50;;;;;;5054018;28;20025;-75
2021/08/09 03:05:53;;;;;;;4.47;1.83;;;15.80;88.50;;;;;;5040977;28;20055;-75
2021/08/09 03:08:19;;;;;;;7.03;2.47;;;15.80;88.50;;;;;;5071623;28;20027;-75
2021/08/09 03:10:44;;;;;;;3.80;2.15;;;15.80;88.50;;;;;;5071862;28;20166;-82
2021/08/09 03:13:10;;;;;;;7.72;2.42;;;15.80;88.60;;;;;;5073378;28;20540;-82
2021/08/09 03:15:38;;;;;;;5.78;2.28;;;15.80;88.60;;;;;;5073388;28;20481;-82
2021/08/09 03:18:03;;;;;;;5.07;2.20;;;15.80;88.60;;;;;;5073076;28;20090;-81
2021/08/09 03:20:30;;;;;;;5.63;1.90;;;15.80;88.60;;;;;;5025044;28;20489;-82
2021/08/09 03:22:56;;;;;;;7.22;2.38;;;15.80;88.60;;;;;;5051995;28;20053;-82
2021/08/09 03:25:21;;;;;;;3.83;1.80;;;15.80;88.60;;;;;;5053237;28;20059;-82
2021/08/09 03:27:47;;;;;;;10.10;2.42;;;15.80;88.60;;;;;;5054969;28;20033;-82
2021/08/09 03:30:13;;;;;;;6.32;2.53;;;15.80;88.60;;;;;;5073099;28;20063;-81
2021/08/09 03:32:39;;;;;;;8.20;2.45;;;15.80;88.50;;;;;;5073161;28;20024;-82
2021/08/09 03:35:05;;;;;;;8.90;2.35;;;15.80;88.60;;;;;;5055263;28;20025;-82
2021/08/09 03:37:30;;;;;;;4.35;1.80;;;15.80;88.70;;;;;;5073276;28;20048;-82
2021/08/09 03:39:56;;;;;;;5.75;2.45;;;15.80;88.80;;;;;;5055154;28;20469;-82
2021/08/09 03:42:23;;;;;;;6.00;2.35;;;15.80;88.90;;;;;;5072224;28;20048;-76
2021/08/09 03:44:49;;;;;;;7.50;2.47;;;15.80;89.60;;;;;;5053936;28;20020;-76
2021/08/09 03:47:15;;;;;;;7.57;2.35;;;15.90;89.10;;;;;;5071583;28;20036;-76
2021/08/09 03:49:40;;;;;;;5.85;2.35;;;15.90;89.70;;;;;;5071491;28;20032;-76
2021/08/09 03:52:06;;;;;;;4.55;2.13;;;15.90;89.70;;;;;;5071195;28;20039;-76
2021/08/09 03:54:32;;;;;;;9.45;2.80;;;15.90;89.10;;;;;;5053711;28;20086;-76
2021/08/09 03:56:57;;;;;;;6.63;2.42;;;15.90;89.20;;;;;;5071651;28;20039;-76
2021/08/09 03:59:23;;;;;;;4.30;1.98;;;15.90;89.20;;;;;;5071314;28;20377;-76
2021/08/09 04:01:49;;;;;;;7.28;2.30;;;15.90;89.20;;;;;;5057642;28;20032;-76
2021/08/09 04:04:15;;;;;;;6.68;2.42;;;15.90;89.30;;;;;;5058159;28;20021;-76
2021/08/09 04:06:41;;;;;;;5.55;2.30;;;15.90;89.30;;;;;;5075732;28;20111;-76
2021/08/09 04:09:07;;;;;;;4.63;2.28;;;15.90;89.30;;;;;;5057655;28;20111;-76
2021/08/09 04:11:34;;;;;;;5.20;2.35;;;16.00;89.40;;;;;;5075390;28;20133;-76
2021/08/09 04:14:01;;;;;;;7.07;2.80;;;15.90;89.40;;;;;;5057961;28;20025;-76
2021/08/09 04:16:27;;;;;;;6.20;2.10;;;16.00;89.50;;;;;;5058092;28;20488;-76
2021/08/09 04:18:53;;;;;;;5.78;2.33;;;16.00;89.50;;;;;;5074937;28;20039;-76
2021/08/09 04:21:19;;;;;;;6.75;2.30;;;15.90;89.50;;;;;;5057800;28;20025;-76
2021/08/09 04:23:45;;;;;;;6.93;2.40;;;15.90;89.50;;;;;;5057837;28;20031;-76
2021/08/09 04:26:10;;;;;;;7.95;2.50;;;16.00;89.60;;;;;;5074722;28;20507;-77
2021/08/09 04:28:36;;;;;;;6.25;2.42;;;15.90;89.60;;;;;;5074945;28;20116;-76
2021/08/09 04:31:02;;;;;;;7.07;2.60;;;15.90;89.60;;;;;;5057446;28;20115;-76
2021/08/09 04:33:28;;;;;;;7.40;3.10;;;15.90;89.70;;;;;;5037506;28;20025;-76
2021/08/09 04:35:53;;;;;;;5.63;2.38;;;15.90;89.80;;;;;;5052110;28;20028;-76
2021/08/09 04:38:19;;;;;;;6.22;2.53;;;15.90;89.90;;;;;;5075384;28;20029;-77
2021/08/09 04:40:45;;;;;;;7.38;2.60;;;15.90;90.00;;;;;;5075582;28;20170;-76
2021/08/09 04:43:10;;;;;;;5.53;2.40;;;16.00;90.00;;;;;;5041006;28;20031;-76
2021/08/09 04:45:36;;;;;;;5.75;2.45;;;16.00;90.10;;;;;;5075121;28;20118;-77
2021/08/09 04:48:01;;;;;;;6.30;2.30;;;16.00;90.10;;;;;;5075064;28;20485;-76
2021/08/09 04:50:27;;;;;;;5.63;2.40;;;16.00;90.10;;;;;;5056944;28;20035;-76
2021/08/09 04:52:53;;;;;;;6.22;2.38;;;16.00;90.00;;;;;;5056814;28;20055;-76
2021/08/09 04:55:18;;;;;;;8.00;2.28;;;16.00;90.00;;;;;;5039784;28;20024;-76
2021/08/09 04:57:44;;;;;;;7.25;2.00;;;16.00;90.00;;;;;;5056905;28;20040;-76
2021/08/09 05:00:10;;;;;;;5.68;2.15;;;16.10;90.00;;;;;;5056696;28;20029;-76
2021/08/09 05:02:39;;;;;;;9.88;2.30;;;16.00;90.00;;;;;;5074329;28;20031;-76
2021/08/09 05:05:05;;;;;;;9.13;2.63;;;16.10;90.00;;;;;;5074563;28;20493;-76
2021/08/09 05:07:30;;;;;;;7.57;2.30;;;16.10;90.00;;;;;;5023663;28;20036;-76
2021/08/09 05:09:56;;;;;;;7.40;2.50;;;16.10;90.00;;;;;;5056541;28;20141;-76
2021/08/09 05:12:22;;;;;;;7.07;2.33;;;16.10;90.10;;;;;;5055707;28;20049;-76
2021/08/09 05:14:47;;;;;;;5.90;2.20;;;16.10;90.10;;;;;;5074075;28;20033;-76
2021/08/09 05:17:13;;;;;;;6.53;2.17;;;16.20;90.10;;;;;;5056545;28;20393;-76
2021/08/09 05:19:39;;;;;;;5.00;1.95;;;16.20;90.10;;;;;;5056367;28;20024;-76
2021/08/09 05:22:04;;;;;;;8.63;2.35;;;16.20;90.10;;;;;;5039435;28;20626;-77
2021/08/09 05:24:30;;;;;;;6.10;2.40;;;16.20;90.10;;;;;;5056144;28;20029;-76
2021/08/09 05:26:56;;;;;;;5.63;2.00;;;16.10;90.20;;;;;;5055609;28;20028;-77
2021/08/09 05:29:22;;;;;;;6.03;2.00;;;16.20;90.20;;;;;;5056194;28;20492;-77
2021/08/09 05:31:48;;;;;;;5.97;1.88;;;16.20;90.30;;;;;;5073518;28;20035;-76
2021/08/09 05:34:14;;;;;;;9.15;2.40;;;16.20;90.30;;;;;;5073832;28;20021;-76
2021/08/09 05:36:42;;;;;;;7.05;2.05;;;16.20;90.20;;;;;;5055844;28;20032;-76
2021/08/09 05:39:07;;;;;;;3.35;1.83;;;16.20;90.20;;;;;;5055499;28;20021;-77
2021/08/09 05:41:34;;;;;;;4.80;2.00;;;16.30;90.10;;;;;;5055804;28;20024;-76
2021/08/09 05:44:00;;;;;;;4.32;2.00;;;16.30;90.10;;;;;;5073905;28;20033;-77
2021/08/09 05:46:26;;;;;;;6.63;2.03;;;16.30;90.10;;;;;;5074141;28;20047;-76
2021/08/09 05:48:51;;;;;;;5.25;2.42;;;16.40;90.10;;;;;;5055628;28;20032;-77
2021/08/09 05:51:17;;;;;;;6.45;1.88;;;16.40;90.10;;;;;;5073477;28;20480;-76
2021/08/09 05:53:42;;;;;;;7.45;2.03;;;16.40;90.10;;;;;;5055607;28;20402;-76
2021/08/09 05:56:08;;;;;;;3.72;1.90;;;16.40;90.10;;;;;;5073648;28;20051;-76
2021/08/09 05:58:34;;;;;;;6.80;2.17;;;16.40;90.10;;;;;;5055135;28;20025;-77
2021/08/09 06:00:59;;;;;;;5.90;2.05;;;16.40;90.00;;;;;;5055865;28;20029;-76
2021/08/09 06:03:25;;;;;;;7.68;1.80;;;16.40;90.00;;;;;;5055524;28;20374;-76
2021/08/09 06:05:53;;;;;;;5.13;2.00;;;16.40;90.10;;;;;;5035509;28;20374;-76
2021/08/09 06:08:19;;;;;;;3.92;2.00;;;16.50;90.10;;;;;;5055850;28;20040;-76
2021/08/09 06:10:45;;;;;;;8.70;2.13;;;16.50;90.00;;;;;;5073670;28;20108;-77
2021/08/09 06:13:10;;;;;;;5.60;2.08;;;16.50;90.30;;;;;;5037827;28;20163;-77
2021/08/09 06:15:36;;;;;;;7.60;1.77;;;16.50;90.00;;;;;;5072911;28;20025;-77
2021/08/09 06:18:02;;;;;;;7.90;2.03;;;16.60;89.80;;;;;;5055707;28;20075;-77
2021/08/09 06:20:27;;;;;;;5.03;1.90;;;16.60;89.80;;;;;;5054884;28;20024;-77
2021/08/09 06:22:53;;;;;;;6.20;1.65;;;16.60;89.90;;;;;;5054844;28;20037;-76
2021/08/09 06:25:19;;;;;;;5.15;1.95;;;16.70;90.00;;;;;;5054676;28;20059;-76
2021/08/09 06:27:46;;;;;;;6.20;2.10;;;16.60;89.90;;;;;;5055556;28;20040;-76
2021/08/09 06:30:12;;;;;;;5.93;2.08;;;16.70;89.90;;;;;;5073112;28;20032;-76
2021/08/09 06:32:37;;;;;;;7.00;2.45;;;16.70;89.70;;;;;;5072737;28;20033;-76
2021/08/09 06:35:04;;;;;;;7.22;2.10;;;16.70;89.60;;;;;;5055564;28;20028;-76
2021/08/09 06:37:30;;;;;;;7.20;1.85;;;16.70;89.60;;;;;;5055561;28;20123;-76
2021/08/09 06:39:56;;;;;;;3.38;1.70;;;16.70;89.80;;;;;;5060212;28;20116;-77
2021/08/09 06:42:21;;;;;;;5.75;1.85;;;16.70;89.90;;;;;;5054690;28;20032;-76
2021/08/09 06:44:47;;;;;;;8.23;1.80;;;16.70;89.90;;;;;;5038328;28;20024;-76
2021/08/09 06:47:13;;;;;;;3.03;1.50;;;16.70;89.80;;;;;;5019582;28;20029;-76
2021/08/09 06:49:39;;;;;;;8.88;1.90;;;16.80;89.70;;;;;;5047465;28;20191;-76
2021/08/09 06:52:05;;;;;;;4.47;1.92;;;16.80;89.90;;;;;;5039020;28;20116;-77
2021/08/09 06:54:31;;;;;;;4.68;1.70;;;16.90;89.90;;;;;;5046936;28;20142;-76
2021/08/09 06:56:56;;;;;;;4.63;1.80;;;17.00;89.60;;;;;;5072413;28;20493;-76
2021/08/09 06:59:22;;;;;;;6.20;1.75;;;17.10;89.40;;;;;;5072574;28;20500;-76
2021/08/09 07:01:48;;;;;;;5.35;1.80;;;17.20;89.00;;;;;;5054498;28;20028;-77
2021/08/09 07:04:14;;;;;;;7.00;1.92;;;17.20;88.60;;;;;;5055068;28;20040;-77
2021/08/09 07:06:39;;;;;;;4.65;1.70;;;17.30;88.40;;;;;;5072610;28;20039;-77
2021/08/09 07:09:05;;;;;;;10.68;1.80;;;17.30;88.20;;;;;;5072526;28;20036;-76
2021/08/09 07:11:31;;;;;;;7.15;1.63;;;17.40;88.10;;;;;;5072242;28;20044;-76
2021/08/09 07:13:57;;;;;;;5.32;1.80;;;17.40;87.90;;;;;;5072825;28;20070;-77
2021/08/09 07:16:26;;;;;;;6.13;1.88;;;17.50;87.60;;;;;;5072588;28;20017;-77
2021/08/09 07:18:52;;;;;;;5.68;1.90;;;17.50;88.10;;;;;;5054508;28;20028;-77
2021/08/09 07:21:19;;;;;;;5.28;2.05;;;17.60;87.30;;;;;;5072192;28;20416;-76
2021/08/09 07:23:44;;;;;;;6.93;1.90;;;17.70;87.00;;;;;;5072292;28;20703;-77
2021/08/09 07:26:10;;;;;;;6.15;2.25;;;17.70;86.70;;;;;;5072263;28;20039;-76
2021/08/09 07:28:36;;;;;;;5.82;1.63;;;17.80;86.50;;;;;;5073234;28;20060;-77
2021/08/09 07:31:02;;;;;;;3.42;1.60;;;17.80;87.00;;;;;;5034101;28;20543;-77
2021/08/09 07:33:28;;;;;;;4.82;2.00;;;17.90;86.20;;;;;;5052300;28;20402;-77
2021/08/09 07:35:54;;;;;;;3.83;1.33;;;17.90;86.20;;;;;;5043096;28;20052;-77
2021/08/09 07:38:19;;;;;;;6.90;1.55;;;18.00;86.00;;;;;;5037549;28;20032;-77
2021/08/09 07:40:46;;;;;;;10.18;2.13;;;18.00;85.80;;;;;;5037454;28;20037;-77
2021/08/09 07:43:12;;;;;;;6.25;1.90;;;18.10;85.60;;;;;;5072173;28;20044;-77
2021/08/09 07:45:37;;;;;;;7.85;1.95;;;18.10;85.60;;;;;;5053497;28;20025;-76
2021/08/09 07:48:04;;;;;;;4.57;2.05;;;18.10;85.30;;;;;;5071766;28;20051;-77
2021/08/09 07:50:30;;;;;;;5.13;1.80;;;18.30;85.30;;;;;;5072435;28;20036;-77
2021/08/09 07:52:56;;;;;;;5.15;1.52;;;18.30;84.70;;;;;;5054694;28;20029;-77
2021/08/09 07:55:22;;;;;;;6.57;1.75;;;18.50;84.00;;;;;;5054837;28;20070;-77
2021/08/09 07:57:48;;;;;;;5.18;1.77;;;18.60;83.80;;;;;;5053902;28;20025;-77
2021/08/09 08:00:17;;;;;;;7.22;1.60;;;18.70;83.20;;;;;;5037880;28;20043;-76
2021/08/09 08:02:43;;;;;;;4.50;1.75;;;18.80;82.60;;;;;;5036101;28;20033;-77
2021/08/09 08:05:09;;;;;;;4.78;1.50;;;19.00;82.40;;;;;;5072383;28;20115;-83
2021/08/09 08:07:35;;;;;;;2.80;1.27;;;19.10;81.60;;;;;;5067498;28;20536;-82
2021/08/09 08:10:02;;;;;;;6.70;1.70;;;19.30;81.10;;;;;;5068492;28;20116;-78
2021/08/09 08:12:28;;;;;;;4.68;1.40;;;19.50;80.00;;;;;;5064688;28;20117;-75
2021/08/09 08:14:54;;;;;;;8.25;1.80;;;19.60;79.60;;;;;;5048460;28;20519;-74
2021/08/09 08:17:20;;;;;;;2.78;1.40;;;19.60;78.80;;;;;;5050167;28;20029;-75
2021/08/09 08:19:46;;;;;;;6.22;1.45;;;19.70;78.70;;;;;;5053809;28;20029;-74
2021/08/09 08:22:11;;;;;;;4.20;1.48;;;19.80;78.20;;;;;;5053213;28;20495;-74
2021/08/09 08:24:37;;;;;;;7.22;2.25;;;20.00;77.90;;;;;;5053176;28;20040;-75
2021/08/09 08:27:03;;;;;;;4.25;1.40;;;20.10;77.10;;;;;;5033775;28;20036;-81
2021/08/09 08:29:28;;;;;;;5.45;1.27;;;20.30;76.80;;;;;;5032868;28;20036;-80
2021/08/09 08:31:54;;;;;;;3.35;1.42;;;20.40;76.70;;;;;;5047975;28;20056;-80
2021/08/09 08:34:20;;;;;;;3.33;1.40;;;20.60;76.10;;;;;;5031866;28;20032;-76
2021/08/09 08:36:45;;;;;;;4.45;1.23;;;20.80;75.10;;;;;;5049044;28;20029;-77
2021/08/09 08:39:11;;;;;;;6.28;1.50;;;20.90;74.40;;;;;;5032524;28;20047;-77
2021/08/09 08:41:45;;;;;;;5.82;1.20;;;21.10;74.20;;;;;;5048768;28;20381;-76
2021/08/09 08:44:17;;;;;;;7.55;1.65;;;21.20;74.10;;;;;;5014530;28;20041;-77
2021/08/09 08:46:44;;;;;;;4.28;1.27;;;21.20;73.80;;;;;;5053132;28;20029;-77
2021/08/09 08:49:14;;;;;;;6.15;1.13;;;21.20;74.00;;;;;;5074173;28;20157;-77
2021/08/09 08:51:45;;;;;;;8.30;1.33;;;21.20;74.20;;;;;;5040193;28;20035;-77
2021/08/09 08:54:12;;;;;;;3.67;1.23;;;21.10;73.30;;;;;;5074473;28;20024;-77
2021/08/09 08:56:40;;;;;;;6.38;1.20;;;21.10;73.70;;;;;;5036441;28;20056;-77
2021/08/09 08:59:07;;;;;;;3.58;1.10;;;21.10;73.50;;;;;;5056687;28;20024;-77
2021/08/09 09:01:35;;;;;;;4.30;1.13;;;21.30;73.60;;;;;;5056593;28;20024;-77
2021/08/09 09:04:18;;;;;;;6.93;1.40;;;21.40;72.70;;;;;;5055795;28;20035;-77
2021/08/09 09:06:43;;;;;;;6.05;1.35;;;21.40;71.70;;;;;;5074174;28;20386;-78
2021/08/09 09:09:22;;;;;;;3.67;1.23;;;21.50;71.40;;;;;;5040060;28;20119;-78
2021/08/09 09:11:48;;;;;;;;;;;21.50;71.00;;;;;;5038171;28;20051;-78
2021/08/09 09:14:14;;;;;;;6.50;1.67;;;21.40;71.60;;;;;;5056158;28;19908;-80
2021/08/09 09:16:47;;;;;;;3.30;1.23;;;21.30;71.30;;;;;;5037214;28;20048;-80
2021/08/09 09:19:43;;;;;;;5.18;1.27;;;21.10;72.00;;;;;;5040808;28;20033;-77
2021/08/09 09:22:22;;;;;;;5.20;1.27;;;21.00;72.00;;;;;;5057454;28;20027;-80
2021/08/09 09:24:51;;;;;;;5.45;1.27;;;20.90;73.00;;;;;;5075226;28;20025;-82
2021/08/09 09:27:31;;;;;;;5.32;1.27;;;20.90;72.90;;;;;;5041542;28;20509;-82
2021/08/09 09:29:58;;;;;;;4.65;1.20;;;20.90;73.10;;;;;;5057616;28;20082;-84
2021/08/09 09:32:25;;;;;;;4.22;1.25;;;20.90;73.10;;;;;;5058360;28;20028;-84
2021/08/09 09:34:57;;;;;;;7.13;1.48;;;21.00;73.20;;;;;;5057257;28;20051;-84
2021/08/09 09:37:31;;;;;;;3.00;1.20;;;21.00;73.60;;;;;;5075121;28;20026;-86
2021/08/09 09:40:05;;;;;;;7.93;1.70;;;21.10;73.60;;;;;;5057246;28;20036;-85
2021/08/09 09:42:36;;;;;;;6.43;1.20;;;21.20;72.10;;;;;;5057256;28;20032;-85
2021/08/09 09:45:26;;;;;;;4.57;1.30;;;21.20;72.60;;;;;;5056378;28;20028;-82
2021/08/09 09:48:05;;;;;;;3.47;1.35;;;21.20;72.70;;;;;;5051463;28;20039;-83
2021/08/09 09:50:32;;;;;;;6.80;1.38;;;21.30;72.90;;;;;;5074964;28;20418;-83
2021/08/09 09:53:22;;;;;;;4.47;1.00;;;21.20;72.50;;;;;;5074592;28;20032;-84
2021/08/09 09:55:50;;;;;;;5.28;1.58;;;21.20;72.50;;;;;;5074720;28;20073;-84
2021/08/09 09:58:19;;;;;;;5.18;1.30;;;21.10;72.10;;;;;;5056290;28;20477;-83
2021/08/09 10:00:45;;;;;;;7.35;1.70;;;21.10;72.60;;;;;;5040221;28;20025;-83
2021/08/09 10:03:12;;;;;;;4.20;1.13;;;21.00;71.30;;;;;;5056710;28;20078;-84
2021/08/09 10:05:42;;;;;;;5.30;1.15;;;21.00;71.40;;;;;;5056770;28;20029;-84
2021/08/09 10:08:16;;;;;;;2.50;0.95;;;21.10;71.20;;;;;;5074025;28;20029;-83
2021/08/09 10:10:45;;;;;;;3.63;1.25;;;21.20;70.70;;;;;;5074050;28;20042;-83
2021/08/09 10:13:11;;;;;;;;;;;21.50;70.00;;;;;;5056146;28;20072;-83
2021/08/09 10:15:36;;;;;;;4.93;1.45;;;21.60;69.20;;;;;;5074501;28;20011;-84
2021/08/09 10:18:03;;;;;;;3.03;1.10;;;21.60;70.00;;;;;;5039990;28;20056;-84
2021/08/09 10:20:30;;;;;;;4.68;1.50;;;21.70;69.50;;;;;;5056824;28;20358;-83
2021/08/09 10:22:58;;;;;;;4.85;1.20;;;21.70;69.50;;;;;;5067724;28;20064;-83
2021/08/09 10:25:56;;;;;;;4.20;0.90;;;21.70;69.40;;;;;;5036347;28;20106;-84
2021/08/09 10:28:21;;;;;;;7.20;1.50;;;21.90;69.00;;;;;;5020345;28;20029;-84
2021/08/09 10:30:47;;;;;;;6.00;1.40;;;22.00;69.50;;;;;;5069548;28;20035;-83
2021/08/09 10:33:13;;;;;;;5.32;1.27;;;22.20;68.90;;;;;;5036421;28;20060;-83
2021/08/09 10:35:45;;;;;;;4.50;1.38;;;22.30;67.10;;;;;;5054169;28;20025;-84
2021/08/09 10:38:34;;;;;;;4.88;1.10;;;22.20;67.10;;;;;;5069344;28;20027;-83
2021/08/09 10:41:09;;;;;;;6.07;1.40;;;22.20;65.80;;;;;;5052568;28;20061;-83
2021/08/09 10:43:42;;;;;;;4.90;1.25;;;22.40;66.70;;;;;;5053827;28;20402;-83
2021/08/09 10:46:34;;;;;;;8.65;1.40;;;22.50;65.10;;;;;;5053816;28;20020;-83
2021/08/09 10:49:00;;;;;;;3.30;1.05;;;22.80;65.40;;;;;;5045697;28;20116;-84
2021/08/09 10:51:50;;;;;;;6.07;1.80;;;22.90;63.00;;;;;;5053674;28;20112;-79
2021/08/09 10:54:35;;;;;;;4.93;1.30;;;22.90;62.90;;;;;;5053005;28;20116;-79
2021/08/09 10:57:03;;;;;;;6.25;1.25;;;22.80;63.40;;;;;;5055256;28;20032;-79
2021/08/09 10:59:38;;;;;;;4.00;1.30;;;22.60;64.30;;;;;;5054332;28;20016;-79
2021/08/09 11:02:05;;;;;;;6.43;1.02;;;22.50;64.20;;;;;;5055152;28;20469;-79
2021/08/09 11:04:31;;;;;;;4.35;1.27;;;22.50;66.10;;;;;;5054217;28;20032;-84
2021/08/09 11:06:57;;;;;;;4.63;1.17;;;22.60;66.40;;;;;;5054301;28;20039;-84
2021/08/09 11:09:32;;;;;;;5.00;1.05;;;22.60;65.80;;;;;;5072080;28;20071;-84
2021/08/09 11:12:15;;;;;;;3.55;1.23;;;22.70;66.00;;;;;;5072916;28;20396;-84
2021/08/09 11:15:11;;;;;;;4.00;1.27;;;22.60;66.00;;;;;;5055378;28;20488;-83
2021/08/09 11:17:37;;;;;;;6.35;1.02;;;22.40;65.40;;;;;;5073273;28;20031;-82
2021/08/09 11:20:24;;;;;;;3.20;1.02;;;22.30;66.00;;;;;;5055420;28;20021;-83
2021/08/09 11:23:02;;;;;;;3.28;0.90;;;22.20;66.40;;;;;;5055413;28;20028;-81
2021/08/09 11:25:39;;;;;;;2.80;0.98;;;22.30;66.10;;;;;;5055320;28;20112;-82
2021/08/09 11:28:21;;;;;;;5.85;1.15;;;22.40;65.00;;;;;;5056031;28;20089;-83
2021/08/09 11:30:55;;;;;;;4.95;1.80;;;22.50;64.70;;;;;;5039083;28;20480;-84
2021/08/09 11:33:25;;;;;;;4.22;1.17;;;22.70;64.50;;;;;;5055252;28;20086;-83
2021/08/09 11:35:51;;;;;;;5.90;1.60;;;22.80;64.80;;;;;;5073180;28;20071;-82
2021/08/09 11:38:18;;;;;;;5.60;1.83;;;22.90;64.10;;;;;;5055286;28;20027;-82
2021/08/09 11:40:46;;;;;;;5.60;1.50;;;22.80;64.10;;;;;;5035617;28;20033;-83
2021/08/09 11:43:41;;;;;;;7.95;1.70;;;22.80;64.00;;;;;;5053218;28;20024;-82
2021/08/09 11:46:09;;;;;;;6.15;1.55;;;22.70;64.00;;;;;;5018793;28;20065;-82
2021/08/09 11:48:38;;;;;;;5.27;1.60;;;22.60;64.50;;;;;;5054614;28;20424;-83
2021/08/09 11:51:06;;;;;;;5.50;1.42;;;22.60;64.00;;;;;;5091748;28;20024;-86
2021/08/09 11:53:33;;;;;;;4.85;1.45;;;22.50;64.20;;;;;;5093514;28;20077;-85
2021/08/09 11:56:11;;;;;;;3.45;1.27;;;22.50;64.30;;;;;;5059029;28;20445;-88
2021/08/09 11:58:37;;;;;;;;;;;22.50;64.00;;;;;;5042106;28;20021;-87
2021/08/09 12:01:04;;;;;;;3.75;1.17;;;22.50;64.30;;;;;;5073194;28;19908;-85
2021/08/09 12:03:31;;;;;;;5.47;1.20;;;22.60;64.50;;;;;;5055006;28;20027;-87
2021/08/09 12:06:20;;;;;;;4.68;1.35;;;22.80;65.20;;;;;;5055196;28;20127;-87
2021/08/09 12:08:57;;;;;;;4.60;1.27;;;23.00;64.40;;;;;;5038457;28;20029;-87
2021/08/09 12:11:29;;;;;;;3.28;1.27;;;23.00;64.10;;;;;;5086686;28;20049;-86
2021/08/09 12:14:09;;;;;;;5.38;1.08;;;23.00;63.20;;;;;;5054949;28;20032;-86
2021/08/09 12:16:56;;;;;;;7.55;1.67;;;22.80;64.60;;;;;;5054867;28;20017;-86
2021/08/09 12:19:36;;;;;;;3.78;1.60;;;22.60;63.70;;;;;;5052936;28;20036;-88
2021/08/09 12:22:26;;;;;;;4.97;1.60;;;22.50;64.20;;;;;;5037534;28;20029;-86
2021/08/09 12:25:09;;;;;;;2.47;1.00;;;22.60;63.80;;;;;;5040835;28;20434;-82
2021/08/09 12:27:36;;;;;;;5.20;1.23;;;22.60;62.40;;;;;;5058056;28;20052;-85
2021/08/09 12:30:01;;;;;;;3.72;1.00;;;22.50;63.30;;;;;;5058757;28;20033;-84
2021/08/09 12:32:28;;;;;;;3.33;1.05;;;22.60;63.70;;;;;;5076246;28;20035;-84
2021/08/09 12:34:58;;;;;;;4.75;1.60;;;22.60;63.90;;;;;;5058872;28;20031;-81
2021/08/09 12:37:23;;;;;;;3.60;1.30;;;22.70;63.30;;;;;;5058445;28;20040;-84
2021/08/09 12:39:49;;;;;;;2.53;0.98;;;22.90;62.40;;;;;;5058181;28;20032;-82
2021/08/09 12:42:18;;;;;;;4.15;1.10;;;23.00;61.40;;;;;;5076178;28;20370;-83
2021/08/09 12:44:44;;;;;;;;;;;23.30;61.80;;;;;;5042201;28;20060;-83
2021/08/09 12:47:10;;;;;;;5.45;1.00;;;23.40;61.60;;;;;;5074844;28;20276;-77
2021/08/09 12:49:35;;;;;;;4.07;1.20;;;23.50;61.40;;;;;;5058283;28;20033;-78
2021/08/09 12:52:02;;;;;;;3.22;0.80;;;23.70;60.30;;;;;;5057857;28;20060;-78
2021/08/09 12:54:29;;;;;;;5.45;1.10;;;23.80;60.40;;;;;;5058052;28;20052;-77
2021/08/09 12:56:55;;;;;;;5.82;1.40;;;24.00;61.40;;;;;;5040524;28;20107;-78